Flight Track Log - Related Links

Times and Time Zones

All times are in EDT time to prevent confusion due to time zone crossing. See the SWA3764 flight status page for this flight to view local times or setup timezone preferences in your user account.

Time Position Orientation Groundspeed Altitude Reporting Facility
EDT Latitude Longitude Course Direction KTS MPH feet Rate Location/Type
Thu 07:17:50 AM 41.8000 -87.7167 177° South 153 176 2,000  Level Chicago TRACON
Thu 07:18:50 AM 41.7667 -87.6667 132° Southeast 208 239 3,900 807 Climbing Chicago TRACON
Thu 07:20:41 AM 41.6644 -87.6447 171° South 261 300 4,300 1,291 Climbing Chicago Center
Thu 07:21:42 AM 41.6056 -87.6989 215° Southwest 259 298 7,600 2,656 Climbing Chicago Center
Thu 07:22:43 AM 41.5431 -87.7575 215° Southwest 272 313 9,700 1,672 Climbing Chicago Center
Thu 07:23:00 AM 40.9169 -87.8692 177° South  Level FlightAware Approximate
Thu 07:23:44 AM 41.4794 -87.8161 215° Southwest 276 318 11,000  Level Chicago Center
Thu 07:24:46 AM 41.3908 -87.8792 208° Southwest 308 354 14,400 3,293 Climbing Chicago Center
Thu 07:26:00 AM 41.2615 -87.8802 185° South  Level FlightAware Approximate
Thu 07:26:48 AM 41.1953 -87.8922 185° South 358 412 21,100  Level Chicago Center
Thu 07:27:50 AM 41.0858 -87.8883 178° South 386 444 23,900 2,683 Climbing Chicago Center
Thu 07:28:51 AM 40.9722 -87.8839 178° South 406 467 26,600 2,754 Climbing Chicago Center
Thu 07:29:52 AM 40.8542 -87.8803 179° South 421 484 29,500 2,878 Climbing Chicago Center
Thu 07:30:54 AM 40.7408 -87.8764 179° South 413 475 32,500 1,707 Climbing Chicago Center
Thu 07:31:55 AM 40.6275 -87.8728 179° South 408 470 33,000 244 Climbing Chicago Center
Thu 07:32:57 AM 40.5117 -87.8683 178° South 416 479 33,000  Level Chicago Center
Thu 07:33:58 AM 40.3742 -87.8647 179° South 413 475 33,000  Level Chicago Center
Thu 07:34:48 AM 40.2742 -87.8628 179° South 416 479 33,000  Level Indianapolis Center
Thu 07:35:50 AM 40.1606 -87.8569 178° South 414 476 33,000  Level Indianapolis Center
Thu 07:36:52 AM 40.0456 -87.8322 171° South 417 480 33,000  Level Indianapolis Center
Thu 07:37:53 AM 39.9300 -87.8061 170° South 422 486 33,000  Level Indianapolis Center
Thu 07:38:54 AM 39.8161 -87.7806 170° South 420 483 33,000  Level Indianapolis Center
Thu 07:39:56 AM 39.7019 -87.7556 170° South 418 481 33,000  Level Indianapolis Center
Thu 07:40:57 AM 39.5853 -87.7300 170° South 425 489 33,000  Level Indianapolis Center
Thu 07:41:59 AM 39.4475 -87.7000 170° South 422 486 33,000  Level Indianapolis Center
Thu 07:43:00 AM 39.3444 -87.6756 170° South 424 488 33,000  Level Indianapolis Center
Thu 07:44:02 AM 39.2256 -87.6517 171° South 429 494 33,000  Level Indianapolis Center
Thu 07:45:03 AM 39.1092 -87.6253 170° South 425 489 33,000  Level Indianapolis Center
Thu 07:46:05 AM 38.9689 -87.5944 170° South 426 490 33,000  Level Indianapolis Center
Thu 07:47:06 AM 38.8503 -87.5703 171° South 429 494 33,000  Level Indianapolis Center
Thu 07:48:08 AM 38.7331 -87.5458 171° South 428 493 33,000  Level Indianapolis Center
Thu 07:49:09 AM 38.6158 -87.5197 170° South 427 491 33,000  Level Indianapolis Center
Thu 07:50:11 AM 38.4986 -87.4953 171° South 427 491 33,000 -195 Level Indianapolis Center
Thu 07:51:12 AM 38.3822 -87.4711 171° South 427 491 32,600 -634 Descending Indianapolis Center
Thu 07:52:14 AM 38.2650 -87.4458 170° South 429 494 31,700 -927 Descending Indianapolis Center
Thu 07:53:15 AM 38.1467 -87.4208 171° South 434 499 30,700 -829 Descending Indianapolis Center
Thu 07:54:17 AM 38.0042 -87.3908 171° South 434 499 30,000 -341 Descending Indianapolis Center
Thu 07:55:18 AM 37.8842 -87.3653 170° South 436 502 30,000  Level Indianapolis Center
Thu 07:56:20 AM 37.7556 -87.3375 170° South 438 504 30,000 -537 Level Indianapolis Center
Thu 07:57:21 AM 37.6347 -87.3122 171° South 435 501 28,900 -1,805 Descending Indianapolis Center
Thu 07:58:23 AM 37.5181 -87.2889 171° South 423 487 26,300 -2,439 Descending Indianapolis Center
Thu 07:59:24 AM 37.4042 -87.2683 172° South 411 473 23,900 -1,610 Descending Indianapolis Center
Thu 08:00:26 AM 37.2925 -87.2394 168° South 407 468 23,000 -466 Descending Indianapolis Center
Thu 08:01:20 AM 37.2003 -87.2058 164° South 414 476 23,000 -895 Level Memphis Center
Thu 08:02:20 AM 37.0928 -87.1633 162° South 409 471 21,300 -7,000 Descending Memphis Center
Thu 08:03:20 AM 36.9878 -87.1261 164° South 394 453 9,000 -2,800 Descending Memphis Center
Thu 08:03:35 AM 36.9519 -87.1119 162° South 383 441 17,800 7,100 Climbing Memphis Center
Thu 08:04:20 AM 36.8889 -87.0886 164° South 379 436 16,100 -2,514 Descending Memphis Center
Thu 08:05:20 AM 36.7836 -87.0489 163° South 368 423 13,400 -2,650 Descending Memphis Center
Thu 08:06:20 AM 36.6908 -87.0164 164° South 360 414 10,800 -1,650 Descending Memphis Center
Thu 08:07:20 AM 36.6128 -86.9731 156° South 331 381 10,100 -1,050 Descending Memphis Center
Thu 08:08:20 AM 36.5486 -86.9217 147° Southeast 295 339 8,700 -1,550 Descending Memphis Center
Thu 08:09:20 AM 36.4847 -86.8700 147° Southeast 275 316 7,000 -1,700 Descending Memphis Center
Thu 08:10:20 AM 36.4208 -86.8186 147° Southeast 275 316 5,300 -1,450 Descending Memphis Center
Thu 08:11:20 AM 36.3611 -86.7750 150° Southeast 275 316 4,100 -650 Descending Memphis Center
Thu 08:12:20 AM 36.3036 -86.7286 147° Southeast 266 306 4,000 -450 Descending Memphis Center
Thu 08:13:20 AM 36.2544 -86.6894 147° Southeast 231 266 3,200 -1,050 Descending Memphis Center
Thu 08:14:20 AM 36.2033 -86.6558 152° Southeast 208 239 1,900 -1,000 Descending Memphis Center
Thu 08:15:20 AM 36.1642 -86.6653 191° South 161 185 1,200 -600 Descending Memphis Center
Thu 08:16:20 AM 36.1331 -86.6719 190° South 141 162 700 3,900 Descending Memphis Center
Thu 08:17:20 AM 36.0958 -86.6811 191° South 141 162 9,000 8,300 Climbing Memphis Center
Thu 08:19:00 AM 36.1167 -86.6667 90° East  Level FlightAware Approximate
Thu 08:26:00 AM 36.1245 -86.6782 90° East  Level Estimated
Thu 08:27:00 AM 36.1245 -86.6782 90° East  Level Estimated
Thu 08:28:00 AM 36.1245 -86.6782 90° East  Level Estimated
Thu 08:29:00 AM 36.1245 -86.6782 90° East  Level Estimated
Thu 08:30:00 AM 36.1245 -86.6782 90° East  Level Estimated
Thu 08:31:00 AM 36.1245 -86.6782 90° East  Level Estimated

Login

Don't have an account? Register now (free) for customized features, flight alerts, and more!